Погода Кампинасна неделю

Сан-Паулу, Бразилия

13 - 19 июня
  • 13июня
    Сегодня
    +15°
    +28°
    Ясно и безоблачно
    ВремяПогодаТемператураВлажностьДавлениеВетер, м/сВероятность осадков
    00:00Ясно и безоблачно+17°C58 %707 мм3.7 м/с5 %
    03:00Ясно и безоблачно+16°C58 %706 мм3.6 м/с5 %
    06:00Ясно и безоблачно+15°C62 %706 мм3.9 м/с5 %
    09:00Ясно и безоблачно+19°C43 %708 мм2.8 м/с5 %
    12:00Ясно и безоблачно+25°C30 %709 мм4.2 м/с5 %
    15:00Ясно и безоблачно+27°C27 %707 мм4.3 м/с5 %
    18:00Ясно и безоблачно+24°C46 %706 мм3.1 м/с5 %
    21:00Ясно и безоблачно+19°C49 %707 мм3.8 м/с5 %
  • 14июня
    Пятница
    +17°
    +29°
    Ясно и безоблачно
    ВремяПогодаТемператураВлажностьДавлениеВетер, м/сВероятность осадков
    00:00Ясно и безоблачно+18°C58 %707 мм4.1 м/с5 %
    03:00Ясно и безоблачно+17°C64 %707 мм3.9 м/с5 %
    06:00Ясно и безоблачно+17°C63 %707 мм4.7 м/с5 %
    09:00Ясно и безоблачно+20°C48 %709 мм4.5 м/с5 %
    12:00Ясно и безоблачно+26°C36 %708 мм5.7 м/с5 %
    15:00Ясно и безоблачно+28°C28 %707 мм5.3 м/с5 %
    18:00Ясно и безоблачно+24°C50 %707 мм3.6 м/с5 %
    21:00Ясно и безоблачно+21°C59 %707 мм4.3 м/с5 %
  • 15июня
    Суббота
    +16°
    +29°
    Ясно и безоблачно
    ВремяПогодаТемператураВлажностьДавлениеВетер, м/сВероятность осадков
    00:00Ясно и безоблачно+20°C70 %708 мм3.8 м/с5 %
    03:00Ясно и безоблачно+19°C74 %708 мм3.5 м/с5 %
    06:00Ясно и безоблачно+18°C73 %708 мм4.3 м/с5 %
    09:00Ясно и безоблачно+21°C56 %710 мм4.0 м/с5 %
    12:00Ясно и безоблачно+27°C37 %709 мм5.2 м/с5 %
    15:00Ясно и безоблачно+28°C32 %708 мм4.0 м/с5 %
    18:00Ясно и безоблачно+26°C46 %708 мм2.8 м/с5 %
    21:00Ясно и безоблачно+22°C56 %708 мм3.1 м/с5 %
  • 16июня
    Воскресенье
    +17°
    +29°
    Небольшая облачность
    ВремяПогодаТемператураВлажностьДавлениеВетер, м/сВероятность осадков
    00:00Ясно и безоблачно+19°C67 %707 мм3.6 м/с5 %
    03:00Ясно и безоблачно+17°C77 %707 мм3.2 м/с5 %
    06:00Ясно и безоблачно+17°C81 %706 мм3.7 м/с5 %
    09:00Ясно и безоблачно+21°C54 %708 мм3.1 м/с5 %
    12:00Небольшая облачность+26°C36 %708 мм4.5 м/с5 %
    15:00Небольшая облачность+28°C31 %706 мм4.4 м/с5 %
    18:00Ясно и безоблачно+25°C47 %706 мм3.1 м/с5 %
    21:00Ясно и безоблачно+21°C53 %706 мм3.3 м/с5 %
Мы используем cookies
Соглашаюсь